sensor_id;sensor_type;location;lat;lon;timestamp;P1;durP1;ratioP1;P2;durP2;ratioP2
71671;SDS011;67659;45.554;11.812;2023-03-04T00:01:45;41.33;;;23.30;;
71671;SDS011;67659;45.554;11.812;2023-03-04T00:04:11;45.15;;;24.65;;
71671;SDS011;67659;45.554;11.812;2023-03-04T00:06:37;44.00;;;23.88;;
71671;SDS011;67659;45.554;11.812;2023-03-04T00:09:03;37.53;;;21.55;;
71671;SDS011;67659;45.554;11.812;2023-03-04T00:11:29;35.67;;;20.88;;
71671;SDS011;67659;45.554;11.812;2023-03-04T00:13:56;35.87;;;20.80;;
71671;SDS011;67659;45.554;11.812;2023-03-04T00:16:22;39.38;;;21.77;;
71671;SDS011;67659;45.554;11.812;2023-03-04T00:18:53;35.58;;;20.65;;
71671;SDS011;67659;45.554;11.812;2023-03-04T00:21:19;35.42;;;20.75;;
71671;SDS011;67659;45.554;11.812;2023-03-04T00:23:45;37.85;;;21.73;;
71671;SDS011;67659;45.554;11.812;2023-03-04T00:26:11;41.27;;;23.07;;
71671;SDS011;67659;45.554;11.812;2023-03-04T00:28:37;42.92;;;24.90;;
71671;SDS011;67659;45.554;11.812;2023-03-04T00:31:04;40.90;;;23.30;;
71671;SDS011;67659;45.554;11.812;2023-03-04T00:33:32;39.22;;;21.17;;
71671;SDS011;67659;45.554;11.812;2023-03-04T00:35:59;34.17;;;20.17;;
71671;SDS011;67659;45.554;11.812;2023-03-04T00:38:25;37.08;;;21.42;;
71671;SDS011;67659;45.554;11.812;2023-03-04T00:40:51;40.45;;;23.55;;
71671;SDS011;67659;45.554;11.812;2023-03-04T00:43:17;43.08;;;23.63;;
71671;SDS011;67659;45.554;11.812;2023-03-04T00:45:43;34.78;;;20.58;;
71671;SDS011;67659;45.554;11.812;2023-03-04T00:48:09;40.43;;;22.17;;
71671;SDS011;67659;45.554;11.812;2023-03-04T00:50:35;38.00;;;22.20;;
71671;SDS011;67659;45.554;11.812;2023-03-04T00:53:01;35.55;;;21.13;;
71671;SDS011;67659;45.554;11.812;2023-03-04T00:55:27;33.78;;;20.42;;
71671;SDS011;67659;45.554;11.812;2023-03-04T00:57:53;38.50;;;21.37;;
71671;SDS011;67659;45.554;11.812;2023-03-04T01:00:19;36.72;;;21.48;;
71671;SDS011;67659;45.554;11.812;2023-03-04T01:02:45;37.00;;;21.05;;
71671;SDS011;67659;45.554;11.812;2023-03-04T01:05:11;36.80;;;21.10;;
71671;SDS011;67659;45.554;11.812;2023-03-04T01:07:37;42.28;;;22.58;;
71671;SDS011;67659;45.554;11.812;2023-03-04T01:10:04;41.55;;;22.17;;
71671;SDS011;67659;45.554;11.812;2023-03-04T01:12:30;42.00;;;23.60;;
71671;SDS011;67659;45.554;11.812;2023-03-04T01:14:56;41.47;;;22.77;;
71671;SDS011;67659;45.554;11.812;2023-03-04T01:17:22;42.22;;;23.30;;
71671;SDS011;67659;45.554;11.812;2023-03-04T01:19:48;46.33;;;24.58;;
71671;SDS011;67659;45.554;11.812;2023-03-04T01:22:13;52.70;;;25.40;;
71671;SDS011;67659;45.554;11.812;2023-03-04T01:24:41;46.67;;;23.83;;
71671;SDS011;67659;45.554;11.812;2023-03-04T01:27:07;50.95;;;25.27;;
71671;SDS011;67659;45.554;11.812;2023-03-04T01:29:32;61.17;;;29.97;;
71671;SDS011;67659;45.554;11.812;2023-03-04T01:31:58;59.17;;;29.25;;
71671;SDS011;67659;45.554;11.812;2023-03-04T01:34:24;58.57;;;28.27;;
71671;SDS011;67659;45.554;11.812;2023-03-04T01:36:50;62.13;;;30.40;;
71671;SDS011;67659;45.554;11.812;2023-03-04T01:39:15;64.13;;;30.30;;
71671;SDS011;67659;45.554;11.812;2023-03-04T01:41:41;61.38;;;29.63;;
71671;SDS011;67659;45.554;11.812;2023-03-04T01:44:08;52.15;;;26.25;;
71671;SDS011;67659;45.554;11.812;2023-03-04T01:46:35;55.33;;;27.75;;
71671;SDS011;67659;45.554;11.812;2023-03-04T01:49:02;54.07;;;27.10;;
71671;SDS011;67659;45.554;11.812;2023-03-04T01:51:28;61.00;;;30.15;;
71671;SDS011;67659;45.554;11.812;2023-03-04T01:53:54;62.58;;;30.73;;
71671;SDS011;67659;45.554;11.812;2023-03-04T01:56:30;58.85;;;28.52;;
71671;SDS011;67659;45.554;11.812;2023-03-04T02:01:49;59.03;;;29.13;;
71671;SDS011;67659;45.554;11.812;2023-03-04T02:04:26;55.88;;;28.88;;
71671;SDS011;67659;45.554;11.812;2023-03-04T02:06:54;66.65;;;31.00;;
71671;SDS011;67659;45.554;11.812;2023-03-04T02:09:20;53.78;;;26.38;;
71671;SDS011;67659;45.554;11.812;2023-03-04T02:11:46;57.87;;;28.80;;
71671;SDS011;67659;45.554;11.812;2023-03-04T02:14:14;57.08;;;26.98;;
71671;SDS011;67659;45.554;11.812;2023-03-04T02:16:40;55.80;;;28.60;;
71671;SDS011;67659;45.554;11.812;2023-03-04T02:19:09;64.05;;;30.63;;
71671;SDS011;67659;45.554;11.812;2023-03-04T02:21:43;51.60;;;25.70;;
71671;SDS011;67659;45.554;11.812;2023-03-04T02:26:47;49.38;;;25.52;;
71671;SDS011;67659;45.554;11.812;2023-03-04T02:29:13;49.37;;;25.70;;
71671;SDS011;67659;45.554;11.812;2023-03-04T02:31:41;48.80;;;26.38;;
71671;SDS011;67659;45.554;11.812;2023-03-04T02:34:29;44.33;;;25.25;;
71671;SDS011;67659;45.554;11.812;2023-03-04T02:36:57;51.35;;;27.20;;
71671;SDS011;67659;45.554;11.812;2023-03-04T02:39:27;46.37;;;24.70;;
71671;SDS011;67659;45.554;11.812;2023-03-04T02:42:07;44.17;;;25.13;;
71671;SDS011;67659;45.554;11.812;2023-03-04T02:44:34;45.78;;;25.20;;
71671;SDS011;67659;45.554;11.812;2023-03-04T02:47:03;45.22;;;24.38;;
71671;SDS011;67659;45.554;11.812;2023-03-04T02:49:31;42.90;;;23.90;;
71671;SDS011;67659;45.554;11.812;2023-03-04T02:52:02;39.93;;;22.47;;
71671;SDS011;67659;45.554;11.812;2023-03-04T02:54:37;38.72;;;21.95;;
71671;SDS011;67659;45.554;11.812;2023-03-04T02:57:05;36.53;;;20.70;;
71671;SDS011;67659;45.554;11.812;2023-03-04T02:59:33;36.35;;;19.40;;
71671;SDS011;67659;45.554;11.812;2023-03-04T03:02:00;36.28;;;20.42;;
71671;SDS011;67659;45.554;11.812;2023-03-04T03:04:26;35.63;;;20.57;;
71671;SDS011;67659;45.554;11.812;2023-03-04T03:06:52;39.72;;;21.58;;
71671;SDS011;67659;45.554;11.812;2023-03-04T03:09:18;35.63;;;20.80;;
71671;SDS011;67659;45.554;11.812;2023-03-04T03:11:44;36.23;;;20.77;;
71671;SDS011;67659;45.554;11.812;2023-03-04T03:14:10;34.70;;;20.40;;
71671;SDS011;67659;45.554;11.812;2023-03-04T03:16:35;38.20;;;20.60;;
71671;SDS011;67659;45.554;11.812;2023-03-04T03:19:01;34.80;;;19.60;;
71671;SDS011;67659;45.554;11.812;2023-03-04T03:21:27;36.85;;;19.88;;
71671;SDS011;67659;45.554;11.812;2023-03-04T03:23:53;35.30;;;19.17;;
71671;SDS011;67659;45.554;11.812;2023-03-04T03:26:19;39.13;;;20.83;;
71671;SDS011;67659;45.554;11.812;2023-03-04T03:28:45;34.35;;;19.98;;
71671;SDS011;67659;45.554;11.812;2023-03-04T03:31:10;34.80;;;20.40;;
71671;SDS011;67659;45.554;11.812;2023-03-04T03:33:36;35.50;;;20.23;;
71671;SDS011;67659;45.554;11.812;2023-03-04T03:36:02;36.47;;;20.90;;
71671;SDS011;67659;45.554;11.812;2023-03-04T03:38:28;35.88;;;19.98;;
71671;SDS011;67659;45.554;11.812;2023-03-04T03:40:54;34.27;;;20.03;;
71671;SDS011;67659;45.554;11.812;2023-03-04T03:43:20;35.08;;;19.65;;
71671;SDS011;67659;45.554;11.812;2023-03-04T03:45:46;29.90;;;17.87;;
71671;SDS011;67659;45.554;11.812;2023-03-04T03:48:11;30.42;;;16.88;;
71671;SDS011;67659;45.554;11.812;2023-03-04T03:50:37;30.97;;;17.93;;
71671;SDS011;67659;45.554;11.812;2023-03-04T03:53:03;34.55;;;18.80;;
71671;SDS011;67659;45.554;11.812;2023-03-04T03:55:29;35.25;;;19.00;;
71671;SDS011;67659;45.554;11.812;2023-03-04T03:57:55;36.13;;;18.52;;
71671;SDS011;67659;45.554;11.812;2023-03-04T04:00:21;33.60;;;18.03;;
71671;SDS011;67659;45.554;11.812;2023-03-04T04:02:47;32.80;;;18.27;;
71671;SDS011;67659;45.554;11.812;2023-03-04T04:05:13;32.33;;;17.90;;
71671;SDS011;67659;45.554;11.812;2023-03-04T04:07:39;32.38;;;17.60;;
71671;SDS011;67659;45.554;11.812;2023-03-04T04:10:06;27.48;;;14.98;;
71671;SDS011;67659;45.554;11.812;2023-03-04T04:12:32;24.85;;;14.10;;
71671;SDS011;67659;45.554;11.812;2023-03-04T04:14:58;28.58;;;15.13;;
71671;SDS011;67659;45.554;11.812;2023-03-04T04:17:24;30.40;;;16.87;;
71671;SDS011;67659;45.554;11.812;2023-03-04T04:19:50;33.55;;;18.10;;
71671;SDS011;67659;45.554;11.812;2023-03-04T04:22:16;31.77;;;17.77;;
71671;SDS011;67659;45.554;11.812;2023-03-04T04:24:44;34.63;;;18.17;;
71671;SDS011;67659;45.554;11.812;2023-03-04T04:27:11;33.92;;;17.95;;
71671;SDS011;67659;45.554;11.812;2023-03-04T04:29:37;30.95;;;17.70;;
71671;SDS011;67659;45.554;11.812;2023-03-04T04:32:03;33.03;;;18.53;;
71671;SDS011;67659;45.554;11.812;2023-03-04T04:34:29;35.13;;;17.80;;
71671;SDS011;67659;45.554;11.812;2023-03-04T04:36:55;35.15;;;18.25;;
71671;SDS011;67659;45.554;11.812;2023-03-04T04:39:21;33.33;;;17.10;;
71671;SDS011;67659;45.554;11.812;2023-03-04T04:41:46;31.08;;;17.05;;
71671;SDS011;67659;45.554;11.812;2023-03-04T04:44:12;29.57;;;16.47;;
71671;SDS011;67659;45.554;11.812;2023-03-04T04:46:39;28.10;;;15.40;;
71671;SDS011;67659;45.554;11.812;2023-03-04T04:49:06;28.98;;;16.15;;
71671;SDS011;67659;45.554;11.812;2023-03-04T04:51:32;28.70;;;16.50;;
71671;SDS011;67659;45.554;11.812;2023-03-04T04:53:59;31.80;;;18.08;;
71671;SDS011;67659;45.554;11.812;2023-03-04T04:56:25;30.83;;;16.60;;
71671;SDS011;67659;45.554;11.812;2023-03-04T04:58:53;27.10;;;14.40;;
71671;SDS011;67659;45.554;11.812;2023-03-04T05:01:21;24.90;;;13.68;;
71671;SDS011;67659;45.554;11.812;2023-03-04T05:03:46;27.27;;;15.52;;
71671;SDS011;67659;45.554;11.812;2023-03-04T05:06:15;30.67;;;16.00;;
71671;SDS011;67659;45.554;11.812;2023-03-04T05:08:41;27.23;;;16.27;;
71671;SDS011;67659;45.554;11.812;2023-03-04T05:11:07;28.83;;;16.20;;
71671;SDS011;67659;45.554;11.812;2023-03-04T05:13:34;27.10;;;15.85;;
71671;SDS011;67659;45.554;11.812;2023-03-04T05:16:00;31.00;;;16.48;;
71671;SDS011;67659;45.554;11.812;2023-03-04T05:18:26;28.27;;;15.87;;
71671;SDS011;67659;45.554;11.812;2023-03-04T05:20:52;26.92;;;15.50;;
71671;SDS011;67659;45.554;11.812;2023-03-04T05:23:19;31.27;;;17.58;;
71671;SDS011;67659;45.554;11.812;2023-03-04T05:25:45;29.80;;;16.75;;
71671;SDS011;67659;45.554;11.812;2023-03-04T05:28:11;28.10;;;15.40;;
71671;SDS011;67659;45.554;11.812;2023-03-04T05:30:38;31.90;;;16.67;;
71671;SDS011;67659;45.554;11.812;2023-03-04T05:33:04;28.77;;;15.18;;
71671;SDS011;67659;45.554;11.812;2023-03-04T05:35:32;28.92;;;15.65;;
71671;SDS011;67659;45.554;11.812;2023-03-04T05:37:59;27.58;;;15.93;;
71671;SDS011;67659;45.554;11.812;2023-03-04T05:40:25;28.58;;;14.88;;
71671;SDS011;67659;45.554;11.812;2023-03-04T05:42:51;29.40;;;15.47;;
71671;SDS011;67659;45.554;11.812;2023-03-04T05:45:17;29.52;;;15.52;;
71671;SDS011;67659;45.554;11.812;2023-03-04T05:47:43;28.92;;;15.80;;
71671;SDS011;67659;45.554;11.812;2023-03-04T05:50:09;27.83;;;15.30;;
71671;SDS011;67659;45.554;11.812;2023-03-04T05:52:35;29.23;;;15.33;;
71671;SDS011;67659;45.554;11.812;2023-03-04T05:55:01;27.38;;;14.73;;
71671;SDS011;67659;45.554;11.812;2023-03-04T05:57:27;25.33;;;13.80;;
71671;SDS011;67659;45.554;11.812;2023-03-04T05:59:53;28.65;;;14.60;;
71671;SDS011;67659;45.554;11.812;2023-03-04T06:02:18;26.17;;;14.50;;
71671;SDS011;67659;45.554;11.812;2023-03-04T06:04:44;27.77;;;15.80;;
71671;SDS011;67659;45.554;11.812;2023-03-04T06:07:10;29.98;;;16.13;;
71671;SDS011;67659;45.554;11.812;2023-03-04T06:09:35;32.70;;;16.37;;
71671;SDS011;67659;45.554;11.812;2023-03-04T06:12:01;29.92;;;15.10;;
71671;SDS011;67659;45.554;11.812;2023-03-04T06:14:27;28.03;;;15.60;;
71671;SDS011;67659;45.554;11.812;2023-03-04T06:16:53;31.00;;;17.90;;
71671;SDS011;67659;45.554;11.812;2023-03-04T06:19:19;27.37;;;15.83;;
71671;SDS011;67659;45.554;11.812;2023-03-04T06:21:45;27.23;;;15.40;;
71671;SDS011;67659;45.554;11.812;2023-03-04T06:24:11;25.83;;;14.30;;
71671;SDS011;67659;45.554;11.812;2023-03-04T06:26:37;28.10;;;15.48;;
71671;SDS011;67659;45.554;11.812;2023-03-04T06:29:05;26.77;;;15.03;;
71671;SDS011;67659;45.554;11.812;2023-03-04T06:31:31;24.80;;;14.70;;
71671;SDS011;67659;45.554;11.812;2023-03-04T06:33:57;24.92;;;14.55;;
71671;SDS011;67659;45.554;11.812;2023-03-04T06:36:23;24.13;;;14.40;;
71671;SDS011;67659;45.554;11.812;2023-03-04T06:38:49;24.90;;;15.32;;
71671;SDS011;67659;45.554;11.812;2023-03-04T06:41:15;23.70;;;14.13;;
71671;SDS011;67659;45.554;11.812;2023-03-04T06:43:41;26.73;;;14.73;;
71671;SDS011;67659;45.554;11.812;2023-03-04T06:46:07;24.67;;;15.00;;
71671;SDS011;67659;45.554;11.812;2023-03-04T06:48:33;20.83;;;13.30;;
71671;SDS011;67659;45.554;11.812;2023-03-04T06:51:06;24.65;;;14.45;;
71671;SDS011;67659;45.554;11.812;2023-03-04T06:53:34;25.33;;;14.07;;
71671;SDS011;67659;45.554;11.812;2023-03-04T06:56:00;24.05;;;14.50;;
71671;SDS011;67659;45.554;11.812;2023-03-04T06:58:26;21.88;;;13.82;;
71671;SDS011;67659;45.554;11.812;2023-03-04T07:00:51;24.63;;;15.20;;
71671;SDS011;67659;45.554;11.812;2023-03-04T07:03:17;23.47;;;15.50;;
71671;SDS011;67659;45.554;11.812;2023-03-04T07:05:43;25.45;;;15.55;;
71671;SDS011;67659;45.554;11.812;2023-03-04T07:08:09;23.97;;;15.37;;
71671;SDS011;67659;45.554;11.812;2023-03-04T07:10:35;26.70;;;17.58;;
71671;SDS011;67659;45.554;11.812;2023-03-04T07:13:01;30.08;;;20.70;;
71671;SDS011;67659;45.554;11.812;2023-03-04T07:15:27;33.33;;;23.73;;
71671;SDS011;67659;45.554;11.812;2023-03-04T07:17:53;26.13;;;17.38;;
71671;SDS011;67659;45.554;11.812;2023-03-04T07:20:19;27.38;;;17.50;;
71671;SDS011;67659;45.554;11.812;2023-03-04T07:22:45;26.02;;;16.75;;
71671;SDS011;67659;45.554;11.812;2023-03-04T07:25:11;26.40;;;17.90;;
71671;SDS011;67659;45.554;11.812;2023-03-04T07:27:37;25.67;;;18.08;;
71671;SDS011;67659;45.554;11.812;2023-03-04T07:30:05;25.48;;;17.05;;
71671;SDS011;67659;45.554;11.812;2023-03-04T07:32:32;22.98;;;15.43;;
71671;SDS011;67659;45.554;11.812;2023-03-04T07:35:01;22.90;;;15.00;;
71671;SDS011;67659;45.554;11.812;2023-03-04T07:37:28;21.70;;;14.18;;
71671;SDS011;67659;45.554;11.812;2023-03-04T07:39:54;22.15;;;14.50;;
71671;SDS011;67659;45.554;11.812;2023-03-04T07:42:20;20.38;;;14.52;;
71671;SDS011;67659;45.554;11.812;2023-03-04T07:44:45;22.70;;;14.53;;
71671;SDS011;67659;45.554;11.812;2023-03-04T07:47:11;22.27;;;14.27;;
71671;SDS011;67659;45.554;11.812;2023-03-04T07:49:37;20.33;;;14.40;;
71671;SDS011;67659;45.554;11.812;2023-03-04T07:52:03;20.73;;;14.02;;
71671;SDS011;67659;45.554;11.812;2023-03-04T07:54:30;19.55;;;13.65;;
71671;SDS011;67659;45.554;11.812;2023-03-04T07:56:56;20.42;;;14.32;;
71671;SDS011;67659;45.554;11.812;2023-03-04T07:59:21;23.13;;;14.30;;
71671;SDS011;67659;45.554;11.812;2023-03-04T08:01:47;19.70;;;13.93;;
71671;SDS011;67659;45.554;11.812;2023-03-04T08:04:13;20.20;;;14.43;;
71671;SDS011;67659;45.554;11.812;2023-03-04T08:06:39;20.20;;;14.52;;
71671;SDS011;67659;45.554;11.812;2023-03-04T08:09:06;18.55;;;14.35;;
71671;SDS011;67659;45.554;11.812;2023-03-04T08:11:33;20.70;;;14.63;;
71671;SDS011;67659;45.554;11.812;2023-03-04T08:14:00;20.63;;;14.40;;
71671;SDS011;67659;45.554;11.812;2023-03-04T08:16:26;20.35;;;15.07;;
71671;SDS011;67659;45.554;11.812;2023-03-04T08:18:53;21.00;;;14.18;;
71671;SDS011;67659;45.554;11.812;2023-03-04T08:21:20;22.58;;;14.75;;
71671;SDS011;67659;45.554;11.812;2023-03-04T08:23:47;20.90;;;14.07;;
71671;SDS011;67659;45.554;11.812;2023-03-04T08:26:18;20.13;;;13.77;;
71671;SDS011;67659;45.554;11.812;2023-03-04T08:28:46;17.95;;;13.13;;
71671;SDS011;67659;45.554;11.812;2023-03-04T08:31:12;18.23;;;12.80;;
71671;SDS011;67659;45.554;11.812;2023-03-04T08:33:39;20.77;;;13.48;;
71671;SDS011;67659;45.554;11.812;2023-03-04T08:36:06;19.40;;;13.07;;
71671;SDS011;67659;45.554;11.812;2023-03-04T08:38:32;18.75;;;13.52;;
71671;SDS011;67659;45.554;11.812;2023-03-04T08:40:58;23.55;;;13.18;;
71671;SDS011;67659;45.554;11.812;2023-03-04T08:43:24;21.80;;;13.27;;
71671;SDS011;67659;45.554;11.812;2023-03-04T08:45:53;18.15;;;13.18;;
71671;SDS011;67659;45.554;11.812;2023-03-04T08:48:19;18.93;;;12.80;;
71671;SDS011;67659;45.554;11.812;2023-03-04T08:50:46;18.20;;;12.57;;
71671;SDS011;67659;45.554;11.812;2023-03-04T08:53:13;19.00;;;12.68;;
71671;SDS011;67659;45.554;11.812;2023-03-04T08:55:40;17.00;;;12.57;;
71671;SDS011;67659;45.554;11.812;2023-03-04T08:58:07;18.45;;;11.68;;
71671;SDS011;67659;45.554;11.812;2023-03-04T09:00:35;19.77;;;11.50;;
71671;SDS011;67659;45.554;11.812;2023-03-04T09:03:03;16.88;;;10.95;;
71671;SDS011;67659;45.554;11.812;2023-03-04T09:05:30;17.23;;;11.43;;
71671;SDS011;67659;45.554;11.812;2023-03-04T09:07:56;16.67;;;11.40;;
71671;SDS011;67659;45.554;11.812;2023-03-04T09:10:22;18.87;;;11.73;;
71671;SDS011;67659;45.554;11.812;2023-03-04T09:12:48;17.25;;;12.25;;
71671;SDS011;67659;45.554;11.812;2023-03-04T09:15:14;19.35;;;12.43;;
71671;SDS011;67659;45.554;11.812;2023-03-04T09:17:40;17.17;;;11.30;;
71671;SDS011;67659;45.554;11.812;2023-03-04T09:20:07;15.53;;;11.50;;
71671;SDS011;67659;45.554;11.812;2023-03-04T09:22:34;15.40;;;11.48;;
71671;SDS011;67659;45.554;11.812;2023-03-04T09:25:01;18.30;;;11.88;;
71671;SDS011;67659;45.554;11.812;2023-03-04T09:27:27;16.15;;;11.50;;
71671;SDS011;67659;45.554;11.812;2023-03-04T09:29:53;16.57;;;11.30;;
71671;SDS011;67659;45.554;11.812;2023-03-04T09:32:18;17.08;;;11.80;;
71671;SDS011;67659;45.554;11.812;2023-03-04T09:34:44;15.80;;;10.87;;
71671;SDS011;67659;45.554;11.812;2023-03-04T09:37:10;16.42;;;11.13;;
71671;SDS011;67659;45.554;11.812;2023-03-04T09:39:36;16.70;;;10.67;;
71671;SDS011;67659;45.554;11.812;2023-03-04T09:42:01;18.52;;;10.52;;
71671;SDS011;67659;45.554;11.812;2023-03-04T09:44:38;15.18;;;9.90;;
71671;SDS011;67659;45.554;11.812;2023-03-04T09:47:14;15.77;;;9.87;;
71671;SDS011;67659;45.554;11.812;2023-03-04T09:49:41;15.07;;;10.05;;
71671;SDS011;67659;45.554;11.812;2023-03-04T09:57:56;17.65;;;11.15;;
71671;SDS011;67659;45.554;11.812;2023-03-04T10:00:43;17.50;;;11.43;;
71671;SDS011;67659;45.554;11.812;2023-03-04T10:03:15;16.77;;;11.82;;
71671;SDS011;67659;45.554;11.812;2023-03-04T10:11:16;18.95;;;11.80;;
71671;SDS011;67659;45.554;11.812;2023-03-04T10:17:28;16.55;;;11.82;;
71671;SDS011;67659;45.554;11.812;2023-03-04T10:19:51;16.02;;;11.98;;
71671;SDS011;67659;45.554;11.812;2023-03-04T10:22:49;16.02;;;11.43;;
71671;SDS011;67659;45.554;11.812;2023-03-04T10:25:27;16.67;;;12.23;;
71671;SDS011;67659;45.554;11.812;2023-03-04T10:27:58;17.03;;;12.30;;
71671;SDS011;67659;45.554;11.812;2023-03-04T10:33:24;18.10;;;12.30;;
71671;SDS011;67659;45.554;11.812;2023-03-04T10:35:59;15.82;;;11.25;;
71671;SDS011;67659;45.554;11.812;2023-03-04T10:38:29;17.17;;;11.95;;
71671;SDS011;67659;45.554;11.812;2023-03-04T10:40:57;16.33;;;11.80;;
71671;SDS011;67659;45.554;11.812;2023-03-04T10:43:23;14.30;;;10.30;;
71671;SDS011;67659;45.554;11.812;2023-03-04T10:45:53;17.20;;;11.95;;
71671;SDS011;67659;45.554;11.812;2023-03-04T10:48:22;16.70;;;11.70;;
71671;SDS011;67659;45.554;11.812;2023-03-04T10:50:51;17.08;;;11.48;;
71671;SDS011;67659;45.554;11.812;2023-03-04T10:53:22;15.70;;;11.20;;
71671;SDS011;67659;45.554;11.812;2023-03-04T10:55:53;15.07;;;10.88;;
71671;SDS011;67659;45.554;11.812;2023-03-04T10:58:19;16.83;;;11.00;;
71671;SDS011;67659;45.554;11.812;2023-03-04T11:00:58;16.65;;;10.38;;
71671;SDS011;67659;45.554;11.812;2023-03-04T11:06:03;16.42;;;11.43;;
71671;SDS011;67659;45.554;11.812;2023-03-04T11:08:30;17.33;;;11.20;;
71671;SDS011;67659;45.554;11.812;2023-03-04T11:10:56;19.07;;;12.10;;
71671;SDS011;67659;45.554;11.812;2023-03-04T11:13:22;18.77;;;11.27;;
71671;SDS011;67659;45.554;11.812;2023-03-04T11:21:21;16.13;;;11.97;;
71671;SDS011;67659;45.554;11.812;2023-03-04T11:26:18;18.35;;;12.15;;
71671;SDS011;67659;45.554;11.812;2023-03-04T11:28:58;17.90;;;12.45;;
71671;SDS011;67659;45.554;11.812;2023-03-04T11:31:27;18.33;;;11.88;;
71671;SDS011;67659;45.554;11.812;2023-03-04T11:36:53;19.27;;;11.48;;
71671;SDS011;67659;45.554;11.812;2023-03-04T11:45:11;20.13;;;12.32;;
71671;SDS011;67659;45.554;11.812;2023-03-04T11:48:00;19.70;;;11.70;;
71671;SDS011;67659;45.554;11.812;2023-03-04T11:56:38;19.20;;;12.55;;
71671;SDS011;67659;45.554;11.812;2023-03-04T11:59:28;17.63;;;11.95;;
71671;SDS011;67659;45.554;11.812;2023-03-04T12:02:14;19.27;;;11.70;;
71671;SDS011;67659;45.554;11.812;2023-03-04T12:05:02;16.35;;;11.90;;
71671;SDS011;67659;45.554;11.812;2023-03-04T12:07:57;18.38;;;12.13;;
71671;SDS011;67659;45.554;11.812;2023-03-04T12:16:40;20.80;;;12.50;;
71671;SDS011;67659;45.554;11.812;2023-03-04T12:33:03;17.85;;;12.48;;
71671;SDS011;67659;45.554;11.812;2023-03-04T12:43:55;19.50;;;13.97;;
71671;SDS011;67659;45.554;11.812;2023-03-04T12:52:20;16.48;;;12.52;;
71671;SDS011;67659;45.554;11.812;2023-03-04T12:55:09;19.27;;;13.40;;
71671;SDS011;67659;45.554;11.812;2023-03-04T12:57:38;18.80;;;13.07;;
71671;SDS011;67659;45.554;11.812;2023-03-04T13:00:13;19.70;;;12.90;;
71671;SDS011;67659;45.554;11.812;2023-03-04T13:05:46;18.95;;;13.45;;
71671;SDS011;67659;45.554;11.812;2023-03-04T13:18:59;20.88;;;14.73;;
71671;SDS011;67659;45.554;11.812;2023-03-04T13:21:27;20.80;;;14.73;;
71671;SDS011;67659;45.554;11.812;2023-03-04T13:24:43;19.93;;;14.63;;
71671;SDS011;67659;45.554;11.812;2023-03-04T13:26:59;20.33;;;14.45;;
71671;SDS011;67659;45.554;11.812;2023-03-04T13:35:21;22.75;;;15.18;;
71671;SDS011;67659;45.554;11.812;2023-03-04T13:38:19;19.67;;;13.38;;
71671;SDS011;67659;45.554;11.812;2023-03-04T13:41:11;20.95;;;14.65;;
71671;SDS011;67659;45.554;11.812;2023-03-04T13:59:16;23.27;;;15.18;;
71671;SDS011;67659;45.554;11.812;2023-03-04T14:02:14;21.98;;;14.77;;
71671;SDS011;67659;45.554;11.812;2023-03-04T14:04:56;21.80;;;15.32;;
71671;SDS011;67659;45.554;11.812;2023-03-04T14:07:30;22.50;;;14.38;;
71671;SDS011;67659;45.554;11.812;2023-03-04T14:10:06;21.10;;;14.63;;
71671;SDS011;67659;45.554;11.812;2023-03-04T14:12:36;22.98;;;15.18;;
71671;SDS011;67659;45.554;11.812;2023-03-04T14:15:17;21.20;;;14.88;;
71671;SDS011;67659;45.554;11.812;2023-03-04T14:18:03;21.60;;;14.20;;
71671;SDS011;67659;45.554;11.812;2023-03-04T14:20:31;23.52;;;15.07;;
71671;SDS011;67659;45.554;11.812;2023-03-04T14:22:59;22.43;;;14.80;;
71671;SDS011;67659;45.554;11.812;2023-03-04T14:25:27;22.27;;;15.30;;
71671;SDS011;67659;45.554;11.812;2023-03-04T14:28:27;23.17;;;14.90;;
71671;SDS011;67659;45.554;11.812;2023-03-04T14:30:50;22.77;;;15.57;;
71671;SDS011;67659;45.554;11.812;2023-03-04T14:33:22;22.88;;;15.52;;
71671;SDS011;67659;45.554;11.812;2023-03-04T14:35:51;24.50;;;15.20;;
71671;SDS011;67659;45.554;11.812;2023-03-04T14:38:22;22.92;;;15.00;;
71671;SDS011;67659;45.554;11.812;2023-03-04T14:40:58;21.35;;;15.00;;
71671;SDS011;67659;45.554;11.812;2023-03-04T14:43:25;22.77;;;15.10;;
71671;SDS011;67659;45.554;11.812;2023-03-04T14:45:54;24.25;;;15.45;;
71671;SDS011;67659;45.554;11.812;2023-03-04T14:48:32;23.43;;;15.47;;
71671;SDS011;67659;45.554;11.812;2023-03-04T14:50:59;22.55;;;15.27;;
71671;SDS011;67659;45.554;11.812;2023-03-04T14:53:27;23.15;;;15.13;;
71671;SDS011;67659;45.554;11.812;2023-03-04T14:58:22;24.17;;;15.70;;
71671;SDS011;67659;45.554;11.812;2023-03-04T15:01:18;23.63;;;15.50;;
71671;SDS011;67659;45.554;11.812;2023-03-04T15:04:00;23.77;;;15.50;;
71671;SDS011;67659;45.554;11.812;2023-03-04T15:06:39;23.63;;;15.38;;
71671;SDS011;67659;45.554;11.812;2023-03-04T15:09:21;24.75;;;16.58;;
71671;SDS011;67659;45.554;11.812;2023-03-04T15:12:10;27.52;;;16.70;;
71671;SDS011;67659;45.554;11.812;2023-03-04T15:17:21;24.73;;;16.27;;
71671;SDS011;67659;45.554;11.812;2023-03-04T15:19:57;25.75;;;15.70;;
71671;SDS011;67659;45.554;11.812;2023-03-04T15:22:24;23.67;;;14.15;;
71671;SDS011;67659;45.554;11.812;2023-03-04T15:24:50;24.70;;;15.37;;
71671;SDS011;67659;45.554;11.812;2023-03-04T15:27:16;26.02;;;16.65;;
71671;SDS011;67659;45.554;11.812;2023-03-04T15:29:48;24.50;;;15.63;;
71671;SDS011;67659;45.554;11.812;2023-03-04T15:32:15;25.65;;;15.98;;
71671;SDS011;67659;45.554;11.812;2023-03-04T15:34:41;26.33;;;16.47;;
71671;SDS011;67659;45.554;11.812;2023-03-04T15:37:08;28.42;;;17.67;;
71671;SDS011;67659;45.554;11.812;2023-03-04T15:39:43;26.80;;;17.67;;
71671;SDS011;67659;45.554;11.812;2023-03-04T15:42:10;29.80;;;19.60;;
71671;SDS011;67659;45.554;11.812;2023-03-04T15:44:37;30.08;;;18.58;;
71671;SDS011;67659;45.554;11.812;2023-03-04T15:47:03;27.95;;;17.75;;
71671;SDS011;67659;45.554;11.812;2023-03-04T15:49:32;28.90;;;17.13;;
71671;SDS011;67659;45.554;11.812;2023-03-04T15:51:59;30.58;;;18.17;;
71671;SDS011;67659;45.554;11.812;2023-03-04T15:54:28;26.87;;;17.53;;
71671;SDS011;67659;45.554;11.812;2023-03-04T15:56:54;27.67;;;17.88;;
71671;SDS011;67659;45.554;11.812;2023-03-04T15:59:22;30.15;;;18.83;;
71671;SDS011;67659;45.554;11.812;2023-03-04T16:01:49;28.73;;;18.13;;
71671;SDS011;67659;45.554;11.812;2023-03-04T16:04:15;29.23;;;17.87;;
71671;SDS011;67659;45.554;11.812;2023-03-04T16:06:44;32.00;;;19.15;;
71671;SDS011;67659;45.554;11.812;2023-03-04T16:09:13;29.35;;;19.85;;
71671;SDS011;67659;45.554;11.812;2023-03-04T16:11:42;34.22;;;20.98;;
71671;SDS011;67659;45.554;11.812;2023-03-04T16:14:11;35.70;;;20.92;;
71671;SDS011;67659;45.554;11.812;2023-03-04T16:16:38;31.27;;;20.00;;
71671;SDS011;67659;45.554;11.812;2023-03-04T16:19:05;30.10;;;18.95;;
71671;SDS011;67659;45.554;11.812;2023-03-04T16:21:30;32.63;;;20.70;;